Airfield :
LOGIN :

Register | Disclaimer

   EN    FR    IT 

 










Legend :    VFR   Marginal VFR   IFR   Intensive IFR   Very Intensive IFR
Visi :
Ceiling :
>= 8 km
>= 3000ft
5 to 8 km
1000 to 3000 ft
1500m to 5 km
500 to 1000 ft
800 to 1500m
200 to 500 ft
< 800m
< 200 ft
Symbols :   Thunderstorms  Fog  Heavy snow  Heavy precipitations  Wind > 20 kt
SIGMETs :     Misc.  Thunderstorms  Icing  Turbulence  Mountain Waves  Volcanic Ashes






- Airport Elevation : 187 ft


ETNW - Wunstorf AB

CURRENT METAR :
  • 021720Z AUTO 11005KT 9999 // ////// 08/04 Q1031 ///

EXPIRED METARs :
  • 021705Z 11003KT 9999 08/05 Q1031 BLU+FCST CNL
  • 021620Z 10008KT 9999 09/05 Q1031 BLU+BLU+
  • 021520Z 08008KT 9999 11/05 Q1031 BLU+BLU+

TAF TAF ETNW
Valid from the 02 at 18:00 until the 03 at 18:00 UTC


021715Z 0218/0318 10006KT 9999 NSW SKC
BECMG 0220/0222 09004KT 5000 BR SKC
PROB30 0301/0307 VRB03KT 0500 FG BKN001
BECMG 0307/0309 21008KT 9999 NSW FEW300 BY ETGL



MET'MAP, your aeronautical weather chart ! - Copyright ORBIFLY December 2007 - Disclaimer

ORBIFLY MET'MAP TEAM :

Programming & Development : Alexandra Zaïnal
Concept & original design : Baudouin d'Aumeries
Assistance for programming : Marc-Olivier Méhu
Technical & hardware support : Manuel Goepfert

Contact : metmap@orbifly.com




SOURCES & CREDITS :

   NOAA